Time;durP1;ratioP1;P1;durP2;ratioP2;P2;SDS_P1;SDS_P2;PMS_P1;PMS_P2;Temp;Humidity;BMP_temperature;BMP_pressure;BME280_temperature;BME280_humidity;BME280_pressure;Samples;Min_cycle;Max_cycle;Signal;HPM_P1;HPM_P2
2021/10/10 00:00:05;;;;;;;24.35;12.68;;;;;;;14.93;60.70;101446.69;4950821;28;20060;-49
2021/10/10 00:02:32;;;;;;;25.65;13.30;;;;;;;14.94;60.26;101442.34;4950157;28;20055;-49
2021/10/10 00:04:59;;;;;;;26.20;13.10;;;;;;;14.94;61.04;101437.16;4949496;28;20130;-46
2021/10/10 00:07:25;;;;;;;26.08;14.18;;;;;;;14.94;59.92;101444.97;4951399;28;20503;-51
2021/10/10 00:09:52;;;;;;;19.77;11.38;;;;;;;14.94;60.20;101439.75;4952901;28;20047;-47
2021/10/10 00:12:19;;;;;;;33.20;15.55;;;;;;;14.94;60.48;101442.34;4945759;28;20114;-50
2021/10/10 00:14:45;;;;;;;31.00;15.50;;;;;;;14.95;60.82;101444.09;4948111;28;20051;-46
2021/10/10 00:17:12;;;;;;;19.52;10.63;;;;;;;14.95;60.53;101441.47;4945460;28;20471;-46
2021/10/10 00:19:39;;;;;;;21.88;10.80;;;;;;;14.96;60.78;101451.06;4948126;28;20059;-46
2021/10/10 00:22:06;;;;;;;21.80;11.07;;;;;;;14.97;60.31;101447.59;4945007;28;20052;-49
2021/10/10 00:24:32;;;;;;;29.27;12.57;;;;;;;14.98;61.22;101454.53;4947963;28;20601;-46
2021/10/10 00:26:59;;;;;;;35.55;17.10;;;;;;;14.98;60.81;101449.31;4951933;28;20051;-48
2021/10/10 00:29:26;;;;;;;34.28;14.88;;;;;;;14.96;61.19;101451.06;4945007;28;20680;-47
2021/10/10 00:31:52;;;;;;;37.15;18.27;;;;;;;14.98;60.79;101451.94;4950159;28;20580;-47
2021/10/10 00:34:19;;;;;;;24.58;10.98;;;;;;;14.98;61.20;101457.16;4950517;28;20644;-47
2021/10/10 00:36:46;;;;;;;28.10;14.65;;;;;;;14.98;61.53;101460.63;4947731;28;20051;-48
2021/10/10 00:39:12;;;;;;;30.10;14.50;;;;;;;15.00;61.06;101463.25;4951569;28;20494;-49
2021/10/10 00:41:39;;;;;;;33.15;17.05;;;;;;;15.00;61.32;101463.25;4946766;28;20107;-49
2021/10/10 00:44:10;;;;;;;37.90;17.92;;;;;;;14.99;61.04;101461.50;4946598;28;20043;-48
2021/10/10 00:46:38;;;;;;;27.80;13.90;;;;;;;15.00;61.05;101458.03;4947788;28;20102;-48
2021/10/10 00:49:05;;;;;;;34.53;16.23;;;;;;;15.02;61.86;101466.72;4952233;28;20042;-48
2021/10/10 00:51:35;;;;;;;21.83;11.38;;;;;;;15.00;61.43;101468.47;4934494;28;20554;-48
2021/10/10 00:54:04;;;;;;;34.75;16.55;;;;;;;15.02;62.26;101466.72;4946986;28;20059;-48
2021/10/10 00:56:33;;;;;;;23.92;12.75;;;;;;;15.04;61.91;101470.22;4953234;28;20621;-48
2021/10/10 00:59:01;;;;;;;34.85;15.73;;;;;;;15.04;62.26;101471.06;4945316;28;20515;-49
2021/10/10 01:01:27;;;;;;;36.67;16.67;;;;;;;15.06;62.29;101472.84;4952471;28;20122;-49
2021/10/10 01:03:56;;;;;;;28.35;15.38;;;;;;;15.05;62.51;101466.72;4948921;28;20053;-50
2021/10/10 01:06:23;;;;;;;27.33;13.48;;;;;;;15.07;62.54;101464.13;4948408;28;20090;-48
2021/10/10 01:08:50;;;;;;;29.08;14.35;;;;;;;15.07;61.85;101459.78;4948715;28;20099;-48
2021/10/10 01:11:19;;;;;;;29.38;14.18;;;;;;;15.08;62.72;101460.63;4947753;28;20099;-49
2021/10/10 01:13:46;;;;;;;35.22;15.63;;;;;;;15.08;62.94;101455.41;4945727;28;20058;-48
2021/10/10 01:16:14;;;;;;;32.13;14.60;;;;;;;15.09;62.88;101451.94;4945769;28;20051;-48
2021/10/10 01:18:41;;;;;;;29.25;14.93;;;;;;;15.10;62.73;101454.53;4930340;28;20079;-50
2021/10/10 01:21:08;;;;;;;26.13;13.70;;;;;;;15.11;63.45;101445.00;4948888;28;20522;-48
2021/10/10 01:23:34;;;;;;;29.45;14.20;;;;;;;15.12;64.01;101442.38;4946473;28;20051;-48
2021/10/10 01:26:01;;;;;;;32.83;14.13;;;;;;;15.13;63.37;101445.88;4952524;28;20091;-48
2021/10/10 01:28:27;;;;;;;24.75;12.73;;;;;;;15.15;63.22;101447.63;4946686;28;20048;-48
2021/10/10 01:30:54;;;;;;;26.60;12.43;;;;;;;15.15;63.20;101439.78;4945854;28;20047;-48
2021/10/10 01:33:21;;;;;;;23.77;12.63;;;;;;;15.15;63.14;101439.78;4950983;28;20126;-48
2021/10/10 01:35:47;;;;;;;27.48;12.35;;;;;;;15.15;63.77;101431.94;4949177;28;20476;-50
2021/10/10 01:38:16;;;;;;;26.00;12.55;;;;;;;15.18;64.20;101435.41;4951583;28;20495;-46
2021/10/10 01:40:45;;;;;;;22.10;11.35;;;;;;;15.19;64.12;101437.19;4947965;28;20059;-47
2021/10/10 01:43:13;;;;;;;22.90;11.18;;;;;;;15.21;64.53;101440.66;4945261;28;20503;-48
2021/10/10 01:45:40;;;;;;;24.42;11.57;;;;;;;15.22;64.12;101442.38;4949046;28;20089;-48
2021/10/10 01:48:07;;;;;;;24.02;11.23;;;;;;;15.23;64.18;101436.31;4946508;28;20082;-46
2021/10/10 01:50:33;;;;;;;22.23;10.82;;;;;;;15.24;64.08;101445.88;4949168;28;20114;-46
2021/10/10 01:53:00;;;;;;;17.95;9.38;;;;;;;15.25;63.21;101447.59;4947466;28;20059;-46
2021/10/10 01:55:28;;;;;;;22.10;11.00;;;;;;;15.25;64.06;101443.25;4946196;28;20058;-48
2021/10/10 01:57:54;;;;;;;23.55;10.90;;;;;;;15.27;64.40;101444.13;4949167;28;20051;-47
2021/10/10 02:00:21;;;;;;;21.67;10.15;;;;;;;15.29;64.42;101441.50;4944987;28;20171;-47
2021/10/10 02:02:47;;;;;;;21.13;10.02;;;;;;;15.31;64.54;101436.28;4949242;28;20055;-47
2021/10/10 02:05:14;;;;;;;24.15;11.93;;;;;;;15.31;64.66;101434.56;4947095;28;20054;-50
2021/10/10 02:07:41;;;;;;;20.10;11.35;;;;;;;15.33;64.40;101435.41;4950689;28;20099;-49
2021/10/10 02:10:09;;;;;;;21.00;10.35;;;;;;;15.33;65.25;101435.41;4944283;28;20055;-48
2021/10/10 02:12:36;;;;;;;24.17;12.13;;;;;;;15.35;65.53;101432.81;4945501;28;20058;-49
2021/10/10 02:15:06;;;;;;;26.35;12.60;;;;;;;15.36;65.58;101435.44;4947771;28;20059;-48
2021/10/10 02:17:32;;;;;;;;;;;;;;;15.38;63.76;101433.69;4945806;28;20059;-47
2021/10/10 02:19:59;;;;;;;21.70;10.90;;;;;;;15.38;64.46;101433.69;4947430;28;20407;-48
2021/10/10 02:22:27;;;;;;;23.58;10.73;;;;;;;15.40;64.61;101434.56;4948306;28;20047;-46
2021/10/10 02:24:53;;;;;;;18.95;10.00;;;;;;;15.40;65.23;101431.94;4947600;28;20082;-47
2021/10/10 02:27:20;;;;;;;26.73;11.48;;;;;;;15.42;65.00;101434.56;4946292;28;20047;-49
2021/10/10 02:29:47;;;;;;;23.67;10.00;;;;;;;15.42;64.63;101430.22;4946772;28;20124;-47
2021/10/10 02:32:13;;;;;;;25.80;12.10;;;;;;;15.43;64.85;101425.84;4951987;28;20106;-48
2021/10/10 02:34:40;;;;;;;25.15;12.82;;;;;;;15.44;65.48;101426.72;4945235;28;20114;-47
2021/10/10 02:37:08;;;;;;;17.90;9.88;;;;;;;15.44;65.12;101422.38;4948444;28;20151;-46
2021/10/10 02:39:35;;;;;;;23.05;11.80;;;;;;;15.45;66.18;101423.22;4942584;28;20054;-47
2021/10/10 02:42:02;;;;;;;22.40;10.35;;;;;;;15.45;65.50;101424.13;4946383;28;20530;-48
2021/10/10 02:44:29;;;;;;;19.70;9.50;;;;;;;15.45;65.34;101423.22;4948079;28;20482;-47
2021/10/10 02:46:56;;;;;;;24.75;11.70;;;;;;;15.45;65.30;101418.88;4944565;28;20051;-48
2021/10/10 02:49:23;;;;;;;21.33;9.60;;;;;;;15.46;65.03;101419.75;4950263;28;20391;-48
2021/10/10 02:51:49;;;;;;;21.95;11.15;;;;;;;15.46;65.15;101417.13;4944727;28;20050;-46
2021/10/10 02:54:16;;;;;;;21.13;9.77;;;;;;;15.46;64.98;101419.75;4947837;28;20554;-46
2021/10/10 02:56:42;;;;;;;23.05;11.60;;;;;;;15.47;65.21;101413.66;4944915;28;20058;-47
2021/10/10 02:59:09;;;;;;;23.02;12.55;;;;;;;15.46;65.80;101412.78;4941717;28;20062;-47
2021/10/10 03:01:36;;;;;;;23.23;9.73;;;;;;;15.47;65.59;101414.53;4951040;28;20449;-49
2021/10/10 03:04:03;;;;;;;20.65;10.00;;;;;;;15.49;65.48;101414.53;4932646;28;20059;-47
2021/10/10 03:06:29;;;;;;;18.13;9.45;;;;;;;15.50;66.07;101408.44;4944739;28;20047;-45
2021/10/10 03:08:56;;;;;;;19.98;11.00;;;;;;;15.51;65.88;101407.56;4944356;28;20048;-47
2021/10/10 03:11:22;;;;;;;21.90;11.02;;;;;;;15.51;65.95;101405.81;4929406;28;20047;-47
2021/10/10 03:13:49;;;;;;;22.33;9.82;;;;;;;15.52;66.28;101406.69;4948715;28;20051;-49
2021/10/10 03:16:15;;;;;;;17.77;9.20;;;;;;;15.54;66.19;101410.19;4945489;28;20043;-46
2021/10/10 03:18:42;;;;;;;19.77;9.52;;;;;;;15.54;66.33;101413.66;4949684;28;20054;-47
2021/10/10 03:21:09;;;;;;;22.48;10.07;;;;;;;15.55;66.45;101414.53;4945853;28;20047;-46
2021/10/10 03:23:35;;;;;;;20.73;10.60;;;;;;;15.55;66.44;101407.56;4945524;28;20511;-45
2021/10/10 03:26:02;;;;;;;20.75;8.73;;;;;;;15.57;66.54;101417.97;4945850;28;20435;-46
2021/10/10 03:28:28;;;;;;;21.02;10.18;;;;;;;15.57;66.37;101412.75;4946290;28;20118;-46
2021/10/10 03:30:55;;;;;;;24.42;10.18;;;;;;;15.58;66.03;101414.53;4944427;28;20070;-45
2021/10/10 03:33:22;;;;;;;23.25;10.73;;;;;;;15.58;66.75;101414.53;4943890;28;20066;-46
2021/10/10 03:35:48;;;;;;;24.40;10.48;;;;;;;15.57;66.75;101415.38;4950223;28;20047;-46
2021/10/10 03:38:15;;;;;;;22.73;11.65;;;;;;;15.58;66.72;101414.53;4948346;28;20102;-45
2021/10/10 03:40:42;;;;;;;24.08;11.52;;;;;;;15.58;66.61;101414.53;4945636;28;20094;-45
2021/10/10 03:43:08;;;;;;;19.38;9.65;;;;;;;15.59;65.92;101420.59;4946008;28;20092;-46
2021/10/10 03:45:35;;;;;;;22.45;10.25;;;;;;;15.59;66.78;101411.03;4946124;28;20059;-46
2021/10/10 03:48:02;;;;;;;19.08;9.48;;;;;;;15.60;66.23;101411.91;4948313;28;20051;-44
2021/10/10 03:50:28;;;;;;;18.77;9.30;;;;;;;15.59;66.28;101416.25;4947550;28;20192;-45
2021/10/10 03:52:55;;;;;;;18.13;9.07;;;;;;;15.60;66.58;101417.13;4946711;28;20055;-45
2021/10/10 03:55:28;;;;;;;17.92;8.65;;;;;;;15.60;66.44;101415.38;4945363;28;20106;-45
2021/10/10 03:57:57;;;;;;;17.38;8.48;;;;;;;15.61;66.48;101414.53;4947917;28;20547;-45
2021/10/10 04:00:25;;;;;;;15.10;7.63;;;;;;;15.61;66.79;101419.75;4945937;28;20131;-46
2021/10/10 04:02:51;;;;;;;15.68;8.43;;;;;;;15.63;66.24;101417.09;4945642;28;20146;-44
2021/10/10 04:05:22;;;;;;;14.30;8.93;;;;;;;15.63;66.38;101418.00;4942456;28;20090;-46
2021/10/10 04:07:49;;;;;;;15.00;7.60;;;;;;;15.64;66.96;101414.50;4948457;28;20047;-45
2021/10/10 04:10:20;;;;;;;14.55;7.85;;;;;;;15.63;66.59;101423.22;4942245;28;20047;-45
2021/10/10 04:12:46;;;;;;;18.08;8.35;;;;;;;15.64;66.47;101416.25;4949319;28;20047;-45
2021/10/10 04:15:14;;;;;;;17.77;8.55;;;;;;;15.63;67.02;101418.00;4943584;28;20487;-45
2021/10/10 04:17:42;;;;;;;23.88;11.15;;;;;;;15.63;66.56;101418.00;4945964;28;20116;-47
2021/10/10 04:20:11;;;;;;;18.05;8.98;;;;;;;15.64;66.81;101418.88;4945126;28;20055;-46
2021/10/10 04:22:38;;;;;;;19.17;8.32;;;;;;;15.63;67.15;101407.53;4948710;28;20390;-48
2021/10/10 04:25:07;;;;;;;22.30;9.98;;;;;;;15.64;66.59;101413.66;4948684;28;20047;-45
2021/10/10 04:27:35;;;;;;;24.05;9.68;;;;;;;15.64;66.47;101413.66;4944472;28;20217;-48
2021/10/10 04:30:04;;;;;;;20.60;9.88;;;;;;;15.64;66.67;101403.19;4945895;28;20186;-46
2021/10/10 04:32:30;;;;;;;17.65;8.18;;;;;;;15.64;66.54;101404.03;4931520;28;20059;-46
2021/10/10 04:34:57;;;;;;;17.75;9.25;;;;;;;15.65;67.06;101410.16;4945606;28;20052;-46
2021/10/10 04:37:24;;;;;;;23.58;11.63;;;;;;;15.64;66.59;101398.81;4946682;28;20538;-45
2021/10/10 04:39:50;;;;;;;20.85;9.32;;;;;;;15.64;66.60;101404.03;4943492;28;20051;-46
2021/10/10 04:42:17;;;;;;;17.98;8.82;;;;;;;15.66;67.15;101407.53;4947981;28;20475;-47
2021/10/10 04:44:44;;;;;;;15.73;7.00;;;;;;;15.65;66.87;101405.81;4946278;28;20636;-48
2021/10/10 04:47:11;;;;;;;16.17;8.48;;;;;;;15.65;66.84;101402.31;4949934;28;20055;-49
2021/10/10 04:49:38;;;;;;;19.08;8.50;;;;;;;15.65;66.66;101405.81;4948957;28;20059;-45
2021/10/10 04:52:05;;;;;;;16.48;8.35;;;;;;;15.65;66.66;101405.81;4950721;28;20107;-46
2021/10/10 04:54:33;;;;;;;17.95;7.90;;;;;;;15.64;66.78;101409.28;4949329;28;20124;-49
2021/10/10 04:57:01;;;;;;;15.98;7.68;;;;;;;15.65;66.66;101405.81;4949809;28;20055;-46
2021/10/10 04:59:27;;;;;;;14.93;7.07;;;;;;;15.66;66.56;101406.66;4947467;28;20055;-45
2021/10/10 05:01:54;;;;;;;17.48;8.00;;;;;;;15.65;66.92;101410.16;4950035;28;20495;-47
2021/10/10 05:04:21;;;;;;;14.98;7.55;;;;;;;15.64;66.49;101409.28;4946213;28;20047;-48
2021/10/10 05:06:47;;;;;;;14.57;7.70;;;;;;;15.65;66.96;101418.00;4948734;28;20059;-47
2021/10/10 05:09:14;;;;;;;12.65;5.57;;;;;;;15.64;65.98;101414.50;4948284;28;20704;-48
2021/10/10 05:11:40;;;;;;;17.13;8.57;;;;;;;15.64;66.66;101414.50;4947313;28;20044;-45
2021/10/10 05:14:07;;;;;;;15.80;8.82;;;;;;;15.65;66.49;101415.38;4946617;28;20114;-45
2021/10/10 05:16:34;;;;;;;17.20;8.38;;;;;;;15.64;67.01;101413.66;4947564;28;20062;-45
2021/10/10 05:19:00;;;;;;;14.35;7.20;;;;;;;15.63;66.07;101418.00;4947810;28;20043;-45
2021/10/10 05:21:27;;;;;;;18.75;9.07;;;;;;;15.62;67.01;101421.47;4944800;28;20055;-47
2021/10/10 05:23:53;;;;;;;16.92;8.90;;;;;;;15.61;66.86;101419.75;4951945;28;20059;-44
2021/10/10 05:26:20;;;;;;;20.58;9.00;;;;;;;15.62;66.60;101413.66;4949332;28;20527;-46
2021/10/10 05:28:46;;;;;;;17.85;9.30;;;;;;;15.62;66.45;101421.47;4949265;28;20055;-45
2021/10/10 05:31:13;;;;;;;19.52;9.52;;;;;;;15.60;66.49;101417.97;4947922;28;20439;-45
2021/10/10 05:33:40;;;;;;;19.25;9.15;;;;;;;15.60;67.02;101417.97;4946772;28;20051;-45
2021/10/10 05:36:06;;;;;;;11.60;6.38;;;;;;;15.60;65.76;101417.97;4948609;28;20051;-45
2021/10/10 05:38:34;;;;;;;21.42;9.90;;;;;;;15.60;66.21;101423.22;4947273;28;20331;-46
2021/10/10 05:41:02;;;;;;;21.83;10.10;;;;;;;15.60;66.46;101412.75;4948628;28;20050;-46
2021/10/10 05:43:28;;;;;;;21.65;9.07;;;;;;;15.60;66.63;101417.97;4947981;28;20058;-45
2021/10/10 05:45:55;;;;;;;21.25;9.88;;;;;;;15.60;66.52;101417.13;4947553;28;20055;-46
2021/10/10 05:48:22;;;;;;;14.57;7.55;;;;;;;15.59;65.97;101421.47;4949429;28;20055;-46
2021/10/10 05:50:49;;;;;;;23.48;10.98;;;;;;;15.60;66.64;101423.22;4946999;28;20051;-46
2021/10/10 05:53:15;;;;;;;17.80;9.00;;;;;;;15.60;66.17;101428.44;4948974;28;20051;-46
2021/10/10 05:55:42;;;;;;;15.23;7.85;;;;;;;15.59;66.21;101424.09;4947779;28;20103;-45
2021/10/10 05:58:17;;;;;;;20.35;9.40;;;;;;;15.59;66.34;101431.94;4948154;28;20130;-45
2021/10/10 06:00:43;;;;;;;17.23;8.20;;;;;;;15.58;66.72;101430.19;4945677;28;20114;-45
2021/10/10 06:03:10;;;;;;;19.67;9.38;;;;;;;15.58;66.40;101427.59;4947195;28;20047;-45
2021/10/10 06:05:37;;;;;;;18.00;9.05;;;;;;;15.58;66.14;101429.31;4952461;28;20048;-45
2021/10/10 06:08:04;;;;;;;19.65;9.18;;;;;;;15.57;66.19;101428.44;4948222;28;20078;-46
2021/10/10 06:10:32;;;;;;;19.60;10.10;;;;;;;15.57;66.99;101431.03;4949137;28;20051;-46
2021/10/10 06:13:00;;;;;;;20.30;9.00;;;;;;;15.57;66.62;101433.66;4930847;28;20043;-45
2021/10/10 06:15:26;;;;;;;19.85;9.27;;;;;;;15.57;66.23;101433.66;4946786;28;20169;-47
2021/10/10 06:17:53;;;;;;;18.52;9.38;;;;;;;15.57;66.85;101433.66;4949210;28;20423;-46
2021/10/10 06:20:19;;;;;;;19.60;9.48;;;;;;;15.58;66.65;101429.31;4943189;28;20110;-46
2021/10/10 06:22:46;;;;;;;20.27;10.52;;;;;;;15.56;66.85;101429.31;4947024;28;20108;-46
2021/10/10 06:25:14;;;;;;;19.40;8.50;;;;;;;15.55;66.67;101436.28;4949177;28;20047;-46
2021/10/10 06:27:41;;;;;;;18.95;10.20;;;;;;;15.55;66.24;101441.50;4948987;28;20050;-46
2021/10/10 06:30:08;;;;;;;20.83;9.88;;;;;;;15.55;66.95;101441.50;4943249;28;20051;-45
2021/10/10 06:32:35;;;;;;;19.05;9.60;;;;;;;15.55;66.60;101440.63;4950977;28;20093;-46
2021/10/10 06:35:02;;;;;;;19.65;9.63;;;;;;;15.54;66.93;101444.13;4950206;28;20102;-47
2021/10/10 06:37:28;;;;;;;18.30;8.95;;;;;;;15.54;66.71;101444.13;4947887;28;20089;-48
2021/10/10 06:39:55;;;;;;;19.15;9.82;;;;;;;15.53;67.05;101442.38;4945862;28;20082;-46
2021/10/10 06:42:21;;;;;;;20.42;9.55;;;;;;;15.53;67.10;101445.84;4948413;28;20059;-48
2021/10/10 06:44:48;;;;;;;19.60;9.73;;;;;;;15.54;66.99;101449.34;4942982;28;20054;-49
2021/10/10 06:47:19;;;;;;;20.48;9.48;;;;;;;15.52;66.82;101441.50;4951292;28;20051;-48
2021/10/10 06:49:46;;;;;;;21.15;9.40;;;;;;;15.52;66.99;101445.84;4943055;28;20047;-48
2021/10/10 06:52:14;;;;;;;20.33;9.32;;;;;;;15.53;67.20;101452.81;4944876;28;20054;-48
2021/10/10 06:54:41;;;;;;;17.60;8.57;;;;;;;15.51;67.15;101450.19;4952149;28;20062;-46
2021/10/10 06:57:07;;;;;;;18.15;10.05;;;;;;;15.53;66.92;101452.81;4943312;28;20059;-48
2021/10/10 06:59:34;;;;;;;17.55;9.68;;;;;;;15.53;67.15;101452.81;4943754;28;20495;-46
2021/10/10 07:02:00;;;;;;;16.92;7.93;;;;;;;15.52;66.88;101451.06;4946402;28;20440;-45
2021/10/10 07:04:27;;;;;;;15.25;7.43;;;;;;;15.52;66.89;101461.53;4947977;28;20459;-50
2021/10/10 07:06:54;;;;;;;20.13;9.93;;;;;;;15.52;67.40;101462.41;4946605;28;20121;-46
2021/10/10 07:09:20;;;;;;;15.65;8.98;;;;;;;15.53;67.01;101463.25;4949321;28;20055;-46
2021/10/10 07:11:47;;;;;;;15.52;8.48;;;;;;;15.51;66.89;101465.88;4951735;28;20051;-47
2021/10/10 07:14:14;;;;;;;13.60;7.32;;;;;;;15.51;67.04;101465.88;4944154;28;20142;-47
2021/10/10 07:16:42;;;;;;;10.95;6.40;;;;;;;15.52;67.20;101471.97;4949711;28;20108;-46
2021/10/10 07:19:09;;;;;;;7.68;4.47;;;;;;;15.48;66.79;101465.00;4944373;28;20055;-46
2021/10/10 07:27:10;;;;;;;3.17;2.60;;;;;;;15.44;65.85;101478.94;4942297;28;20134;-46
2021/10/10 07:29:41;;;;;;;4.20;2.72;;;;;;;15.41;65.62;101478.06;4943237;28;20047;-46
2021/10/10 07:32:07;;;;;;;3.00;2.53;;;;;;;15.39;65.62;101485.03;4950307;28;20047;-49
2021/10/10 07:34:34;;;;;;;4.18;2.67;;;;;;;15.37;65.75;101494.59;4946430;28;20059;-46
2021/10/10 07:37:00;;;;;;;4.47;3.00;;;;;;;15.36;65.81;101494.59;4943539;28;20085;-47
2021/10/10 07:39:27;;;;;;;4.65;2.83;;;;;;;15.34;65.50;101497.22;4946801;28;20192;-47
2021/10/10 07:41:54;;;;;;;3.35;2.80;;;;;;;15.32;65.78;101496.34;4946854;28;20334;-47
2021/10/10 07:44:23;;;;;;;2.47;2.28;;;;;;;15.32;65.43;101490.22;4946389;28;20094;-46
2021/10/10 07:46:56;;;;;;;2.83;2.15;;;;;;;15.32;65.79;101504.16;4947864;28;20095;-46
2021/10/10 07:49:23;;;;;;;3.90;2.33;;;;;;;15.30;65.30;101498.06;4948101;28;20063;-46
2021/10/10 07:51:50;;;;;;;2.35;1.95;;;;;;;15.29;65.40;101504.16;4948074;28;20060;-48
2021/10/10 07:54:16;;;;;;;3.10;1.95;;;;;;;15.28;65.62;101505.03;4946522;28;20055;-47
2021/10/10 07:56:43;;;;;;;2.58;2.38;;;;;;;15.26;65.30;101493.72;4946897;28;20051;-46
2021/10/10 07:59:10;;;;;;;4.88;2.40;;;;;;;15.25;64.89;101500.69;4943528;28;20076;-46
2021/10/10 08:01:36;;;;;;;4.57;2.72;;;;;;;15.24;65.36;101503.28;4945093;28;20043;-47
2021/10/10 08:04:03;;;;;;;2.30;1.33;;;;;;;15.23;65.32;101506.78;4950696;28;20436;-46
2021/10/10 08:06:30;;;;;;;4.75;2.30;;;;;;;15.23;65.03;101506.78;4945032;28;20055;-46
2021/10/10 08:08:57;;;;;;;3.15;2.72;;;;;;;15.22;65.55;101510.22;4948868;28;20099;-48
2021/10/10 08:11:23;;;;;;;2.88;2.35;;;;;;;15.22;65.26;101515.47;4938755;28;20099;-47
2021/10/10 08:13:50;;;;;;;2.92;2.13;;;;;;;15.21;65.41;101516.34;4939963;28;20059;-46
2021/10/10 08:16:16;;;;;;;4.15;2.20;;;;;;;15.18;65.37;101513.72;4944100;28;20046;-47
2021/10/10 08:18:43;;;;;;;4.00;2.35;;;;;;;15.17;65.36;101518.06;4943559;28;20071;-47
2021/10/10 08:21:10;;;;;;;2.65;2.13;;;;;;;15.19;64.91;101526.75;4942011;28;20051;-46
2021/10/10 08:23:36;;;;;;;3.60;2.38;;;;;;;15.19;65.33;101525.91;4945750;28;20055;-48
2021/10/10 08:26:03;;;;;;;3.08;2.10;;;;;;;15.20;65.57;101523.28;4947715;28;20055;-46
2021/10/10 08:28:30;;;;;;;4.63;2.53;;;;;;;15.21;65.52;101529.38;4947549;28;20059;-47
2021/10/10 08:30:56;;;;;;;4.57;2.55;;;;;;;15.19;65.17;101528.53;4950110;28;20062;-46
2021/10/10 08:33:23;;;;;;;2.92;1.67;;;;;;;15.20;65.12;101536.31;4943531;28;20347;-46
2021/10/10 08:35:50;;;;;;;3.58;2.47;;;;;;;15.21;65.40;101527.66;4949341;28;20048;-47
2021/10/10 08:38:16;;;;;;;4.05;2.20;;;;;;;15.22;64.70;101539.81;4949345;28;20073;-47
2021/10/10 08:40:44;;;;;;;3.20;2.30;;;;;;;15.22;65.27;101541.56;4949456;28;20043;-49
2021/10/10 08:43:15;;;;;;;3.67;2.40;;;;;;;15.23;65.06;101538.09;4946780;28;20094;-48
2021/10/10 08:45:42;;;;;;;6.28;2.33;;;;;;;15.23;65.36;101538.94;4951932;28;20047;-50
2021/10/10 08:48:09;;;;;;;6.90;3.03;;;;;;;15.24;65.07;101545.94;4951003;28;20482;-47
2021/10/10 08:50:37;;;;;;;6.65;2.55;;;;;;;15.26;65.21;101553.75;4948834;28;20653;-47
2021/10/10 08:53:03;;;;;;;3.50;1.60;;;;;;;15.28;65.57;101557.25;4953106;28;20380;-49
2021/10/10 08:55:32;;;;;;;4.72;2.10;;;;;;;15.31;65.78;101546.81;4946304;28;20075;-48
2021/10/10 08:57:59;;;;;;;6.43;2.17;;;;;;;15.38;65.77;101552.91;4952142;28;20050;-51
2021/10/10 09:00:36;;;;;;;4.70;1.40;;;;;;;15.45;66.45;101543.31;4947609;28;20640;-50
2021/10/10 09:03:12;;;;;;;3.60;1.58;;;;;;;15.59;66.47;101544.22;4950019;28;20395;-49
2021/10/10 09:05:49;;;;;;;4.22;2.53;;;;;;;15.78;66.30;101552.06;4954512;28;20062;-46
2021/10/10 09:08:16;;;;;;;5.75;2.28;;;;;;;15.97;65.71;101557.31;4948670;28;20095;-47
2021/10/10 09:10:43;;;;;;;4.10;2.17;;;;;;;16.17;65.96;101557.25;4951797;28;20045;-51
2021/10/10 09:13:12;;;;;;;4.20;2.60;;;;;;;16.36;65.54;101555.50;4950778;28;20099;-50
2021/10/10 09:15:41;;;;;;;4.15;2.25;;;;;;;16.58;65.51;101560.63;4955708;28;20058;-48
2021/10/10 09:18:09;;;;;;;7.10;3.20;;;;;;;16.79;65.13;101562.28;4957902;28;20430;-46
2021/10/10 09:20:38;;;;;;;3.08;2.15;;;;;;;17.02;64.34;101566.53;4950050;28;20063;-47
2021/10/10 09:23:08;;;;;;;4.25;2.40;;;;;;;17.23;63.33;101554.25;4949438;28;20055;-52
2021/10/10 09:25:35;;;;;;;4.00;2.58;;;;;;;17.42;63.09;101565.47;4952052;28;20095;-51
2021/10/10 09:28:22;;;;;;;4.07;2.53;;;;;;;17.65;62.74;101567.03;4953864;28;20054;-52
2021/10/10 09:30:54;;;;;;;4.35;2.70;;;;;;;17.81;62.56;101570.41;4953893;28;20091;-48
2021/10/10 09:33:58;;;;;;;4.03;2.08;;;;;;;18.05;61.80;101570.19;4951879;28;20048;-50
2021/10/10 09:36:27;;;;;;;4.80;3.17;;;;;;;18.23;61.33;101577.91;4940347;28;20468;-51
2021/10/10 09:38:59;;;;;;;5.82;2.65;;;;;;;18.41;61.05;101575.09;4948676;28;20055;-52
2021/10/10 09:41:34;;;;;;;4.78;1.95;;;;;;;18.57;60.18;101578.41;4951958;28;20108;-48
2021/10/10 09:44:09;;;;;;;3.00;2.10;;;;;;;18.72;60.48;101580.88;4950401;28;20058;-49
2021/10/10 09:46:38;;;;;;;4.20;2.72;;;;;;;18.91;59.44;101582.38;4963191;28;20069;-49
2021/10/10 09:49:26;;;;;;;5.53;2.42;;;;;;;19.11;59.29;101580.38;4970717;28;20506;-52
2021/10/10 09:51:55;;;;;;;2.63;1.95;;;;;;;19.25;58.37;101580.19;4966931;28;20043;-51
2021/10/10 09:54:23;;;;;;;4.13;2.33;;;;;;;19.41;57.36;101579.94;4968696;28;20059;-50
2021/10/10 09:57:07;;;;;;;4.18;2.20;;;;;;;19.57;57.87;101587.59;4969427;28;20043;-51
2021/10/10 09:59:34;;;;;;;2.65;2.38;;;;;;;19.69;56.81;101587.38;4967757;28;20113;-50
2021/10/10 10:02:01;;;;;;;3.72;2.03;;;;;;;19.80;56.35;101587.22;4971712;28;20181;-49
2021/10/10 10:04:41;;;;;;;2.90;1.95;;;;;;;19.91;56.82;101587.91;4966631;28;20046;-48
2021/10/10 10:07:09;;;;;;;4.22;1.95;;;;;;;19.99;56.60;101587.78;4965431;28;20043;-49
2021/10/10 10:09:36;;;;;;;5.28;3.30;;;;;;;20.08;56.05;101589.41;4968894;28;20050;-52
2021/10/10 10:12:03;;;;;;;2.65;2.22;;;;;;;20.13;55.94;101581.44;4967186;28;20039;-52
2021/10/10 10:14:31;;;;;;;2.70;1.27;;;;;;;20.21;55.32;101583.91;4970340;28;20414;-48
2021/10/10 10:17:01;;;;;;;3.28;1.75;;;;;;;20.26;55.20;101582.03;4970015;28;20054;-47
2021/10/10 10:19:29;;;;;;;4.15;2.38;;;;;;;20.31;54.95;101590.75;4970145;28;20055;-49
2021/10/10 10:21:57;;;;;;;8.38;3.05;;;;;;;20.36;54.50;101593.28;4964159;28;20109;-49
2021/10/10 10:24:25;;;;;;;6.72;2.17;;;;;;;20.33;54.09;101593.34;4970370;28;20635;-48
2021/10/10 10:26:52;;;;;;;6.80;3.28;;;;;;;20.32;54.38;101587.22;4965731;28;20054;-49
2021/10/10 10:29:25;;;;;;;6.35;2.28;;;;;;;20.28;53.99;101586.41;4967323;28;20058;-48
2021/10/10 10:31:54;;;;;;;5.03;2.85;;;;;;;20.27;54.21;101591.69;4972833;28;20039;-49
2021/10/10 10:34:25;;;;;;;5.10;2.25;;;;;;;20.23;54.09;101582.97;4964869;28;20066;-48
2021/10/10 10:37:02;;;;;;;5.95;3.22;;;;;;;20.20;53.75;101588.31;4965417;28;20055;-51
2021/10/10 10:39:41;;;;;;;5.15;2.33;;;;;;;20.13;54.01;101586.69;4969893;28;20081;-47
2021/10/10 10:42:39;;;;;;;2.75;1.95;;;;;;;20.06;53.11;101579.81;4965772;28;20467;-49
2021/10/10 10:45:31;;;;;;;2.20;1.95;;;;;;;19.97;53.38;101580.81;4964660;28;20059;-48
2021/10/10 10:48:04;;;;;;;3.70;1.75;;;;;;;19.87;52.64;101580.97;4962207;28;20054;-51
2021/10/10 10:50:36;;;;;;;3.10;2.78;;;;;;;19.84;53.26;101581.03;4965089;28;20502;-48
2021/10/10 10:53:07;;;;;;;2.40;2.08;;;;;;;19.78;53.56;101576.75;4964940;28;20057;-49
2021/10/10 10:55:36;;;;;;;2.78;2.22;;;;;;;19.75;53.02;101576.78;4962601;28;20047;-49
2021/10/10 10:58:12;;;;;;;2.75;2.55;;;;;;;19.71;52.80;101579.47;4965612;28;20043;-51
2021/10/10 11:00:41;;;;;;;3.05;2.47;;;;;;;19.65;52.46;101580.44;4957617;28;20058;-49
2021/10/10 11:03:27;;;;;;;4.43;1.88;;;;;;;19.60;53.23;101587.56;4960671;28;20051;-48
2021/10/10 11:05:57;;;;;;;2.80;2.03;;;;;;;19.53;53.33;101582.38;4963419;28;20486;-51
2021/10/10 11:08:32;;;;;;;2.55;1.63;;;;;;;19.47;53.63;101571.97;4960541;28;20058;-51
2021/10/10 11:11:13;;;;;;;2.97;1.75;;;;;;;19.41;53.27;101577.31;4942707;28;20046;-51
2021/10/10 11:13:44;;;;;;;3.13;2.33;;;;;;;19.36;53.67;101569.50;4962226;28;20054;-47
2021/10/10 11:16:14;;;;;;;2.55;1.52;;;;;;;19.31;52.92;101565.22;4964041;28;20051;-50
2021/10/10 11:18:48;;;;;;;1.67;1.45;;;;;;;19.27;52.86;101570.53;4963791;28;20526;-47
2021/10/10 11:21:18;;;;;;;2.63;1.75;;;;;;;19.26;52.95;101568.78;4961176;28;20050;-47
2021/10/10 11:23:48;;;;;;;2.58;2.20;;;;;;;19.23;53.24;101567.97;4958893;28;20043;-48
2021/10/10 11:26:15;;;;;;;2.83;2.20;;;;;;;19.22;54.15;101569.72;4960626;28;20051;-48